createdAt,value
2023-02-08T00:00:44.626Z,94361.00
2023-02-08T00:01:44.645Z,94363.00
2023-02-08T00:02:44.695Z,94363.00
2023-02-08T00:03:44.726Z,94361.00
2023-02-08T00:04:44.730Z,94363.00
2023-02-08T00:05:44.783Z,94361.00
2023-02-08T00:06:44.813Z,94363.00
2023-02-08T00:07:44.841Z,94361.00
2023-02-08T00:08:44.936Z,94357.00
2023-02-08T00:09:44.913Z,94359.00
2023-02-08T00:10:44.970Z,94359.00
2023-02-08T00:11:45.027Z,94361.00
2023-02-08T00:12:45.076Z,94363.00
2023-02-08T00:13:45.089Z,94363.00
2023-02-08T00:14:45.116Z,94365.00
2023-02-08T00:15:45.201Z,94365.00
2023-02-08T00:16:45.164Z,94365.00
2023-02-08T00:17:45.200Z,94365.00
2023-02-08T00:18:45.231Z,94363.00
2023-02-08T00:19:45.272Z,94365.00
2023-02-08T00:20:45.301Z,94365.00
2023-02-08T00:21:45.342Z,94363.00
2023-02-08T00:22:45.376Z,94363.00
2023-02-08T00:23:45.407Z,94361.00
2023-02-08T00:24:45.449Z,94369.00
2023-02-08T00:25:45.489Z,94367.00
2023-02-08T00:26:45.532Z,94367.00
2023-02-08T00:27:45.579Z,94369.00
2023-02-08T00:28:45.626Z,94367.00
2023-02-08T00:29:45.647Z,94365.00
2023-02-08T00:30:45.693Z,94369.00
2023-02-08T00:31:45.677Z,94369.00
2023-02-08T00:32:45.641Z,94369.00
2023-02-08T00:33:45.667Z,94367.00
2023-02-08T00:34:45.686Z,94367.00
2023-02-08T00:35:45.716Z,94367.00
2023-02-08T00:36:45.763Z,94369.00
2023-02-08T00:37:45.799Z,94369.00
2023-02-08T00:38:45.832Z,94373.00
2023-02-08T00:39:45.892Z,94369.00
2023-02-08T00:40:45.862Z,94371.00
2023-02-08T00:41:45.844Z,94375.00
2023-02-08T00:42:45.846Z,94373.00
2023-02-08T00:43:45.842Z,94373.00
2023-02-08T00:44:45.865Z,94373.00
2023-02-08T00:45:45.896Z,94375.00
2023-02-08T00:46:45.962Z,94377.00
2023-02-08T00:47:45.925Z,94377.00
2023-02-08T00:48:45.938Z,94379.00
2023-02-08T00:49:45.937Z,94379.00
2023-02-08T00:50:45.911Z,94377.00
2023-02-08T00:51:45.905Z,94377.00
2023-02-08T00:52:45.911Z,94379.00
2023-02-08T00:53:45.895Z,94377.00
2023-02-08T00:54:45.903Z,94375.00
2023-02-08T00:55:45.882Z,94379.00
2023-02-08T00:56:45.953Z,94377.00
2023-02-08T00:57:45.873Z,94379.00
2023-02-08T00:58:45.882Z,94381.00
2023-02-08T00:59:45.873Z,94385.00
2023-02-08T01:00:45.945Z,94387.00
2023-02-08T01:01:46.408Z,94389.00
2023-02-08T01:02:45.845Z,94391.00
2023-02-08T01:03:46.814Z,94389.00
2023-02-08T01:04:45.826Z,94391.00
2023-02-08T01:05:45.832Z,94389.00
2023-02-08T01:06:45.810Z,94391.00
2023-02-08T01:07:45.802Z,94391.00
2023-02-08T01:08:45.807Z,94391.00
2023-02-08T01:09:45.883Z,94391.00
2023-02-08T01:10:45.741Z,94392.00
2023-02-08T01:11:45.738Z,94392.00
2023-02-08T01:12:45.751Z,94392.00
2023-02-08T01:13:45.736Z,94392.00
2023-02-08T01:14:45.714Z,94391.00
2023-02-08T01:15:45.694Z,94389.00
2023-02-08T01:16:45.656Z,94385.00
2023-02-08T01:17:45.651Z,94383.00
2023-02-08T01:18:45.631Z,94383.00
2023-02-08T01:19:45.615Z,94383.00
2023-02-08T01:20:45.626Z,94383.00
2023-02-08T01:21:45.624Z,94383.00
2023-02-08T01:22:45.619Z,94381.00
2023-02-08T01:23:45.597Z,94381.00
2023-02-08T01:24:45.557Z,94377.00
2023-02-08T01:25:45.568Z,94375.00
2023-02-08T01:26:45.581Z,94373.00
2023-02-08T01:27:45.544Z,94371.00
2023-02-08T01:28:45.569Z,94371.00
2023-02-08T01:29:45.486Z,94367.00
2023-02-08T02:39:45.009Z,94338.00
2023-02-08T02:40:45.028Z,94340.00
2023-02-08T02:41:45.060Z,94338.00
2023-02-08T02:42:45.085Z,94340.00
2023-02-08T02:44:45.167Z,94340.00
2023-02-08T02:45:45.217Z,94338.00
2023-02-08T02:46:45.223Z,94336.00
2023-02-08T03:57:48.385Z,94318.00
2023-02-08T04:07:48.397Z,94328.00
2023-02-08T04:09:48.145Z,94322.00
2023-02-08T04:10:48.165Z,94328.00
2023-02-08T04:11:48.207Z,94326.00
2023-02-08T04:12:48.244Z,94322.00
2023-02-08T04:13:48.292Z,94328.00
2023-02-08T04:14:48.328Z,94326.00
2023-02-08T04:15:48.398Z,94328.00
2023-02-08T04:16:48.392Z,94330.00
2023-02-08T04:17:48.430Z,94326.00
2023-02-08T04:18:48.477Z,94324.00
2023-02-08T04:19:48.511Z,94322.00
2023-02-08T04:20:48.539Z,94322.00
2023-02-08T04:21:48.577Z,94322.00
2023-02-08T04:22:48.611Z,94322.00
2023-02-08T04:23:48.712Z,94320.00
2023-02-08T04:24:48.744Z,94322.00
2023-02-08T04:25:48.698Z,94324.00
2023-02-08T04:26:48.733Z,94324.00
2023-02-08T04:27:48.793Z,94322.00
2023-02-08T04:28:48.808Z,94322.00
2023-02-08T04:29:48.842Z,94324.00
2023-02-08T04:30:48.945Z,94320.00
2023-02-08T04:31:48.931Z,94320.00
2023-02-08T04:32:48.936Z,94318.00
2023-02-08T04:33:48.981Z,94318.00
2023-02-08T04:34:49.011Z,94320.00
2023-02-08T04:35:49.067Z,94324.00
2023-02-08T04:36:49.091Z,94322.00
2023-02-08T04:37:49.133Z,94326.00
2023-02-08T04:38:49.153Z,94322.00
2023-02-08T04:39:49.192Z,94324.00
2023-02-08T04:40:49.228Z,94326.00
2023-02-08T04:41:49.263Z,94320.00
2023-02-08T04:42:49.303Z,94322.00
2023-02-08T04:43:49.361Z,94326.00
2023-02-08T04:44:49.423Z,94324.00
2023-02-08T04:45:49.482Z,94324.00
2023-02-08T04:46:49.474Z,94328.00
2023-02-08T04:47:49.498Z,94326.00
2023-02-08T04:48:49.530Z,94328.00
2023-02-08T04:49:49.595Z,94328.00
2023-02-08T04:50:49.614Z,94328.00
2023-02-08T04:51:49.648Z,94328.00
2023-02-08T04:52:49.681Z,94326.00
2023-02-08T04:53:49.844Z,94328.00
2023-02-08T04:54:49.767Z,94328.00
2023-02-08T04:55:49.799Z,94328.00
2023-02-08T04:56:49.842Z,94330.00
2023-02-08T04:57:49.874Z,94326.00
2023-02-08T04:58:49.921Z,94330.00
2023-02-08T04:59:49.954Z,94326.00
2023-02-08T05:00:50.051Z,94326.00
2023-02-08T05:01:50.064Z,94330.00
2023-02-08T05:02:50.075Z,94326.00
2023-02-08T05:03:50.175Z,94326.00
2023-02-08T05:04:50.170Z,94326.00
2023-02-08T05:05:50.181Z,94326.00
2023-02-08T05:06:50.220Z,94328.00
2023-02-08T05:07:50.256Z,94328.00
2023-02-08T05:08:50.340Z,94328.00
2023-02-08T05:09:50.340Z,94326.00
2023-02-08T05:10:50.369Z,94326.00
2023-02-08T05:11:50.423Z,94328.00
2023-02-08T05:12:50.446Z,94330.00
2023-02-08T05:13:50.476Z,94326.00
2023-02-08T05:14:50.521Z,94328.00
2023-02-08T05:15:50.576Z,94324.00
2023-02-08T05:16:50.590Z,94322.00
2023-02-08T05:17:50.605Z,94320.00
2023-02-08T05:18:50.652Z,94324.00
2023-02-08T05:19:50.677Z,94322.00
2023-02-08T05:20:50.710Z,94324.00
2023-02-08T05:21:50.765Z,94320.00
2023-02-08T05:22:50.796Z,94322.00
2023-02-08T05:23:50.962Z,94322.00
2023-02-08T05:24:50.872Z,94320.00
2023-02-08T05:25:50.920Z,94322.00
2023-02-08T05:26:50.935Z,94322.00
2023-02-08T05:27:51.018Z,94328.00
2023-02-08T05:28:51.029Z,94328.00
2023-02-08T05:29:51.043Z,94326.00
2023-02-08T05:30:51.101Z,94324.00
2023-02-08T05:31:51.141Z,94326.00
2023-02-08T05:32:51.151Z,94322.00
2023-02-08T05:33:51.221Z,94322.00
2023-02-08T05:34:51.223Z,94320.00
2023-02-08T05:35:51.266Z,94318.00
2023-02-08T05:36:51.296Z,94318.00
2023-02-08T05:37:51.429Z,94320.00
2023-02-08T05:38:51.380Z,94322.00
2023-02-08T05:39:51.418Z,94324.00
2023-02-08T05:40:51.456Z,94324.00
2023-02-08T05:41:51.506Z,94322.00
2023-02-08T05:42:51.592Z,94322.00
2023-02-08T05:43:52.417Z,94322.00
2023-02-08T05:44:51.614Z,94324.00
2023-02-08T05:45:51.643Z,94322.00
2023-02-08T05:46:51.747Z,94320.00
2023-02-08T05:47:51.722Z,94322.00
2023-02-08T05:48:51.756Z,94324.00
2023-02-08T05:49:51.807Z,94324.00
2023-02-08T05:50:51.832Z,94328.00
2023-02-08T05:51:51.884Z,94330.00
2023-02-08T05:52:51.908Z,94330.00
2023-02-08T05:53:51.951Z,94328.00
2023-02-08T05:54:52.003Z,94330.00
2023-02-08T05:55:52.045Z,94328.00
2023-02-08T05:56:52.082Z,94328.00
2023-02-08T05:57:52.097Z,94328.00
2023-02-08T05:58:52.132Z,94328.00
2023-02-08T05:59:52.976Z,94330.00
2023-02-08T06:00:52.309Z,94330.00
2023-02-08T06:01:52.252Z,94330.00
2023-02-08T06:02:52.346Z,94326.00
2023-02-08T06:03:52.353Z,94328.00
2023-02-08T06:04:52.346Z,94330.00
2023-02-08T06:05:52.408Z,94332.00
2023-02-08T06:06:52.431Z,94332.00
2023-02-08T06:07:52.482Z,94334.00
2023-02-08T06:08:52.516Z,94334.00
2023-02-08T06:09:53.419Z,94330.00
2023-02-08T06:10:52.570Z,94332.00
2023-02-08T06:11:52.658Z,94334.00
2023-02-08T06:12:52.653Z,94336.00
2023-02-08T06:13:52.691Z,94334.00
2023-02-08T06:14:52.723Z,94338.00
2023-02-08T06:15:52.746Z,94344.00
2023-02-08T06:16:52.784Z,94342.00
2023-02-08T06:17:52.835Z,94344.00
2023-02-08T06:18:52.878Z,94342.00
2023-02-08T06:19:52.924Z,94347.00
2023-02-08T06:20:52.946Z,94342.00
2023-02-08T06:21:52.997Z,94345.00
2023-02-08T06:22:53.016Z,94345.00
2023-02-08T06:23:53.015Z,94342.00
2023-02-08T06:24:53.056Z,94342.00
2023-02-08T06:25:53.097Z,94338.00
2023-02-08T06:26:53.146Z,94338.00
2023-02-08T06:27:53.199Z,94342.00
2023-02-08T06:28:53.217Z,94342.00
2023-02-08T06:29:53.925Z,94347.00
2023-02-08T06:30:53.292Z,94344.00
2023-02-08T06:31:53.347Z,94342.00
2023-02-08T06:32:53.311Z,94344.00
2023-02-08T06:33:53.328Z,94345.00
2023-02-08T06:34:53.348Z,94347.00
2023-02-08T06:35:53.343Z,94345.00
2023-02-08T06:36:53.345Z,94344.00
2023-02-08T06:37:53.341Z,94345.00
2023-02-08T06:38:53.337Z,94347.00
2023-02-08T06:39:53.338Z,94347.00
2023-02-08T06:40:53.334Z,94347.00
2023-02-08T06:41:53.326Z,94351.00
2023-02-08T06:42:53.339Z,94347.00
2023-02-08T06:43:53.324Z,94347.00
2023-02-08T06:44:55.361Z,94349.00
2023-02-08T06:45:53.312Z,94353.00
2023-02-08T06:46:53.257Z,94351.00
2023-02-08T06:47:53.934Z,94353.00
2023-02-08T06:48:53.225Z,94351.00
2023-02-08T07:12:52.432Z,94355.00
2023-02-08T07:13:52.394Z,94355.00
2023-02-08T07:14:52.405Z,94355.00
2023-02-08T07:15:52.376Z,94359.00
2023-02-08T07:16:53.230Z,94357.00
2023-02-08T07:17:52.257Z,94357.00
2023-02-08T07:18:52.281Z,94357.00
2023-02-08T07:19:52.453Z,94357.00
2023-02-08T07:20:52.337Z,94361.00
2023-02-08T07:21:52.328Z,94361.00
2023-02-08T07:22:52.326Z,94355.00
2023-02-08T07:23:52.865Z,94353.00
2023-02-08T07:24:52.385Z,94351.00
2023-02-08T07:25:52.386Z,94349.00
2023-02-08T07:26:52.380Z,94351.00
2023-02-08T07:27:52.367Z,94349.00
2023-02-08T07:28:52.338Z,94345.00
2023-02-08T07:29:52.350Z,94345.00
2023-02-08T07:30:52.387Z,94347.00
2023-02-08T07:31:52.456Z,94347.00
2023-02-08T07:32:52.940Z,94349.00
2023-02-08T07:33:52.446Z,94347.00
2023-02-08T07:34:52.459Z,94349.00
2023-02-08T07:35:52.475Z,94349.00
2023-02-08T07:36:52.478Z,94349.00
2023-02-08T07:37:52.490Z,94349.00
2023-02-08T07:38:52.484Z,94349.00
2023-02-08T07:39:52.467Z,94351.00
2023-02-08T07:40:52.485Z,94347.00
2023-02-08T07:41:52.484Z,94349.00
2023-02-08T07:42:52.485Z,94351.00
2023-02-08T07:43:52.483Z,94347.00
2023-02-08T07:44:52.487Z,94345.00
2023-02-08T07:45:52.540Z,94344.00
2023-02-08T07:46:52.475Z,94347.00
2023-02-08T07:47:52.482Z,94344.00
2023-02-08T07:48:52.456Z,94347.00
2023-02-08T07:49:52.961Z,94347.00
2023-02-08T07:50:52.431Z,94347.00
2023-02-08T07:51:52.409Z,94347.00
2023-02-08T07:52:52.384Z,94351.00
2023-02-08T07:53:52.376Z,94351.00
2023-02-08T07:54:52.354Z,94351.00
2023-02-08T07:55:52.329Z,94351.00
2023-02-08T07:56:52.307Z,94351.00
2023-02-08T07:57:52.283Z,94351.00
2023-02-08T07:58:52.250Z,94351.00
2023-02-08T07:59:54.159Z,94349.00
2023-02-08T08:00:52.203Z,94351.00
2023-02-08T08:01:52.206Z,94351.00
2023-02-08T08:02:53.012Z,94345.00
2023-02-08T08:03:52.145Z,94340.00
2023-02-08T08:04:52.085Z,94338.00
2023-02-08T08:05:54.689Z,94338.00
2023-02-08T08:06:52.004Z,94334.00
2023-02-08T08:07:52.961Z,94336.00
2023-02-08T08:08:51.929Z,94332.00
2023-02-08T08:09:51.893Z,94334.00
2023-02-08T08:10:51.849Z,94330.00
2023-02-08T08:11:51.973Z,94328.00
2023-02-08T08:12:51.765Z,94326.00
2023-02-08T08:13:51.731Z,94324.00
2023-02-08T08:14:51.674Z,94326.00
2023-02-08T08:15:51.642Z,94326.00
2023-02-08T08:16:51.594Z,94328.00
2023-02-08T08:17:51.602Z,94326.00
2023-02-08T08:18:51.513Z,94318.00
2023-02-08T08:19:51.478Z,94320.00
2023-02-08T08:20:51.448Z,94318.00
2023-02-08T08:21:51.421Z,94322.00
2023-02-08T08:22:51.381Z,94314.00
2023-02-08T08:23:51.396Z,94318.00
2023-02-08T08:24:51.309Z,94314.00
2023-02-08T08:25:51.279Z,94314.00
2023-02-08T08:26:51.233Z,94312.00
2023-02-08T08:27:51.247Z,94310.00
2023-02-08T08:28:51.203Z,94312.00
2023-02-08T08:29:51.124Z,94310.00
2023-02-08T08:30:51.153Z,94308.00
2023-02-08T08:31:51.141Z,94308.00
2023-02-08T08:32:51.015Z,94310.00
2023-02-08T08:33:51.004Z,94316.00
2023-02-08T08:34:50.958Z,94308.00
2023-02-08T08:35:50.934Z,94308.00
2023-02-08T08:36:50.888Z,94306.00
2023-02-08T08:37:50.859Z,94310.00
2023-02-08T08:38:50.820Z,94306.00
2023-02-08T08:39:50.790Z,94308.00
2023-02-08T08:40:50.817Z,94304.00
2023-02-08T08:41:50.715Z,94300.00
2023-02-08T08:42:50.988Z,94300.00
2023-02-08T08:43:50.635Z,94297.00
2023-02-08T08:44:50.595Z,94295.00
2023-02-08T08:45:52.898Z,94295.00
2023-02-08T08:46:50.568Z,94295.00
2023-02-08T08:47:50.585Z,94285.00
2023-02-08T08:48:50.605Z,94289.00
2023-02-08T08:49:50.649Z,94287.00
2023-02-08T08:50:50.661Z,94287.00
2023-02-08T08:51:50.686Z,94289.00
2023-02-08T08:52:50.727Z,94289.00
2023-02-08T08:53:50.752Z,94289.00
2023-02-08T08:54:50.763Z,94285.00
2023-02-08T08:55:50.790Z,94285.00
2023-02-08T08:56:50.819Z,94285.00
2023-02-08T08:57:50.851Z,94285.00
2023-02-08T08:58:50.893Z,94287.00
2023-02-08T08:59:50.913Z,94289.00
2023-02-08T09:00:50.997Z,94287.00
2023-02-08T09:01:50.968Z,94285.00
2023-02-08T09:02:51.482Z,94287.00
2023-02-08T09:03:50.996Z,94289.00
2023-02-08T09:04:51.041Z,94289.00
2023-02-08T09:05:51.045Z,94289.00
2023-02-08T09:06:51.071Z,94289.00
2023-02-08T09:07:51.093Z,94279.00
2023-02-08T09:08:51.859Z,94281.00
2023-02-08T09:09:51.124Z,94283.00
2023-02-08T09:10:51.153Z,94283.00
2023-02-08T09:11:51.179Z,94281.00
2023-02-08T09:12:51.241Z,94283.00
2023-02-08T09:13:51.212Z,94279.00
2023-02-08T09:14:51.238Z,94275.00
2023-02-08T09:15:51.247Z,94275.00
2023-02-08T09:16:51.246Z,94277.00
2023-02-08T09:17:51.261Z,94275.00
2023-02-08T09:18:51.279Z,94271.00
2023-02-08T09:19:51.277Z,94271.00
2023-02-08T09:20:51.355Z,94269.00
2023-02-08T09:21:51.310Z,94271.00
2023-02-08T09:22:51.389Z,94269.00
2023-02-08T09:23:51.355Z,94271.00
2023-02-08T09:24:51.349Z,94273.00
2023-02-08T09:25:51.370Z,94275.00
2023-02-08T09:26:51.400Z,94269.00
2023-02-08T09:27:51.406Z,94271.00
2023-02-08T09:28:51.417Z,94269.00
2023-02-08T09:29:51.409Z,94269.00
2023-02-08T09:30:51.424Z,94265.00
2023-02-08T09:31:51.506Z,94269.00
2023-02-08T09:32:51.418Z,94269.00
2023-02-08T09:33:51.411Z,94265.00
2023-02-08T09:34:51.413Z,94271.00
2023-02-08T09:35:51.404Z,94269.00
2023-02-08T09:36:51.374Z,94269.00
2023-02-08T09:37:51.353Z,94275.00
2023-02-08T09:38:51.318Z,94279.00
2023-02-08T09:39:51.283Z,94279.00
2023-02-08T09:40:51.246Z,94283.00
2023-02-08T09:41:51.286Z,94279.00
2023-02-08T09:42:51.172Z,94275.00
2023-02-08T09:43:51.137Z,94275.00
2023-02-08T11:14:51.518Z,94144.00
2023-02-08T11:55:50.603Z,94081.00
2023-02-08T11:56:50.569Z,94079.00
2023-02-08T11:57:50.542Z,94075.00
2023-02-08T11:58:50.511Z,94075.00
2023-02-08T11:59:50.502Z,94072.00
2023-02-08T12:00:50.452Z,94073.00
2023-02-08T12:01:50.427Z,94072.00
2023-02-08T12:02:50.378Z,94066.00
2023-02-08T12:04:50.403Z,94068.00
2023-02-08T12:06:50.232Z,94066.00
2023-02-08T12:07:50.185Z,94064.00
2023-02-08T12:08:50.152Z,94060.00
2023-02-08T12:09:50.117Z,94054.00
2023-02-08T12:10:50.065Z,94052.00
2023-02-08T12:11:50.028Z,94048.00
2023-02-08T12:12:49.984Z,94046.00
2023-02-08T12:13:49.938Z,94040.00
2023-02-08T12:14:49.890Z,94040.00
2023-02-08T12:15:58.159Z,94038.00
2023-02-08T12:16:50.781Z,94038.00
2023-02-08T12:17:49.835Z,94034.00
2023-02-08T12:18:49.678Z,94034.00
2023-02-08T12:19:49.623Z,94038.00
2023-02-08T12:36:03.162Z,94015.00
2023-02-08T12:37:48.536Z,94007.00
2023-02-08T12:38:48.472Z,94007.00
2023-02-08T12:39:48.424Z,94005.00
2023-02-08T12:41:48.306Z,93995.00
2023-02-08T12:42:48.236Z,93995.00
2023-02-08T12:43:48.169Z,93993.00
2023-02-08T12:44:48.110Z,93991.00
2023-02-08T12:45:48.557Z,93989.00
2023-02-08T12:49:48.627Z,93972.00
2023-02-08T13:06:01.332Z,93936.00
2023-02-08T14:02:48.123Z,93874.00
2023-02-08T15:47:46.431Z,93923.00
2023-02-08T15:48:46.398Z,93923.00
2023-02-08T15:49:46.362Z,93925.00
2023-02-08T15:50:46.376Z,93925.00
2023-02-08T15:51:46.286Z,93925.00
2023-02-08T15:52:46.262Z,93923.00
2023-02-08T15:53:46.236Z,93925.00
2023-02-08T15:54:46.188Z,93925.00
2023-02-08T15:55:46.163Z,93925.00
2023-02-08T15:56:46.131Z,93923.00
2023-02-08T15:57:46.088Z,93927.00
2023-02-08T15:58:46.072Z,93927.00
2023-02-08T15:59:46.032Z,93925.00
2023-02-08T16:00:46.332Z,93929.00
2023-02-08T16:01:45.979Z,93929.00
2023-02-08T16:02:45.954Z,93927.00
2023-02-08T16:03:45.952Z,93925.00
2023-02-08T16:04:45.878Z,93925.00
2023-02-08T16:05:45.905Z,93923.00
2023-02-08T16:06:46.620Z,93927.00
2023-02-08T16:07:45.788Z,93925.00
2023-02-08T16:08:45.755Z,93925.00
2023-02-08T16:09:45.742Z,93929.00
2023-02-08T16:10:45.708Z,93929.00
2023-02-08T16:11:45.742Z,93931.00
2023-02-08T16:12:45.667Z,93931.00
2023-02-08T16:13:45.642Z,93925.00
2023-02-08T16:14:52.421Z,93927.00
2023-02-08T16:15:46.586Z,93931.00
2023-02-08T16:16:45.599Z,93932.00
2023-02-08T16:17:45.526Z,93931.00
2023-02-08T16:18:45.480Z,93934.00
2023-02-08T16:19:45.460Z,93936.00
2023-02-08T16:20:45.846Z,93940.00
2023-02-08T16:21:45.376Z,93942.00
2023-02-08T16:22:45.354Z,93938.00
2023-02-08T16:23:46.128Z,93938.00
2023-02-08T16:24:45.279Z,93942.00
2023-02-08T16:25:45.257Z,93940.00
2023-02-08T16:26:45.201Z,93942.00
2023-02-08T16:27:45.159Z,93946.00
2023-02-08T16:52:45.656Z,93987.00
2023-02-08T17:01:44.824Z,94003.00
2023-02-08T17:08:44.871Z,94011.00
2023-02-08T17:09:44.881Z,94011.00
2023-02-08T17:10:45.144Z,94013.00
2023-02-08T17:11:44.892Z,94011.00
2023-02-08T17:12:44.910Z,94013.00
2023-02-08T17:13:44.933Z,94013.00
2023-02-08T17:14:44.938Z,94015.00
2023-02-08T17:15:45.216Z,94015.00
2023-02-08T17:16:44.960Z,94015.00
2023-02-08T17:17:44.974Z,94017.00
2023-02-08T17:18:44.989Z,94017.00
2023-02-08T17:19:45.004Z,94019.00
2023-02-08T17:20:45.020Z,94021.00
2023-02-08T17:21:45.093Z,94019.00
2023-02-08T17:22:45.052Z,94021.00
2023-02-08T17:23:45.045Z,94019.00
2023-02-08T17:24:45.064Z,94023.00
2023-02-08T17:25:45.573Z,94025.00
2023-02-08T17:26:45.091Z,94023.00
2023-02-08T17:27:45.099Z,94025.00
2023-02-08T17:28:45.119Z,94025.00
2023-02-08T17:29:45.209Z,94023.00
2023-02-08T17:30:45.302Z,94026.00
2023-02-08T17:31:45.214Z,94025.00
2023-02-08T17:32:45.189Z,94023.00
2023-02-08T17:33:45.259Z,94026.00
2023-02-08T17:34:45.215Z,94025.00
2023-02-08T17:35:45.617Z,94023.00
2023-02-08T17:36:45.324Z,94026.00
2023-02-08T17:37:45.263Z,94030.00
2023-02-08T17:38:45.289Z,94028.00
2023-02-08T17:39:46.156Z,94030.00
2023-02-08T17:40:45.335Z,94030.00
2023-02-08T17:41:48.164Z,94030.00
2023-02-08T17:42:47.546Z,94032.00
2023-02-08T17:43:45.295Z,94032.00
2023-02-08T17:44:45.234Z,94034.00
2023-02-08T17:45:45.674Z,94038.00
2023-02-08T17:46:45.253Z,94040.00
2023-02-08T17:47:45.186Z,94038.00
2023-02-08T17:48:47.300Z,94038.00
2023-02-08T17:49:45.166Z,94036.00
2023-02-08T17:50:45.565Z,94036.00
2023-02-08T17:51:45.094Z,94038.00
2023-02-08T17:52:45.051Z,94040.00
2023-02-08T17:53:45.091Z,94036.00
2023-02-08T17:54:44.998Z,94036.00
2023-02-08T17:55:45.371Z,94036.00
2023-02-08T17:56:44.924Z,94038.00
2023-02-08T17:57:44.902Z,94040.00
2023-02-08T17:58:44.858Z,94040.00
2023-02-08T17:59:44.823Z,94038.00
2023-02-08T18:00:44.792Z,94038.00
2023-02-08T18:01:44.832Z,94036.00
2023-02-08T18:02:44.731Z,94040.00
2023-02-08T18:03:44.698Z,94040.00
2023-02-08T18:04:44.651Z,94044.00
2023-02-08T18:05:44.626Z,94048.00
2023-02-08T18:06:44.585Z,94052.00
2023-02-08T18:07:44.558Z,94052.00
2023-02-08T18:08:44.508Z,94054.00
2023-02-08T18:09:44.491Z,94056.00
2023-02-08T18:10:44.710Z,94058.00
2023-02-08T18:11:44.416Z,94060.00
2023-02-08T18:12:44.408Z,94060.00
2023-02-08T18:13:44.375Z,94060.00
2023-02-08T18:14:44.411Z,94060.00
2023-02-08T18:15:44.637Z,94062.00
2023-02-08T18:16:44.303Z,94064.00
2023-02-08T18:17:44.236Z,94064.00
2023-02-08T18:18:44.190Z,94066.00
2023-02-08T18:19:44.155Z,94066.00
2023-02-08T18:20:44.113Z,94070.00
2023-02-08T18:21:44.150Z,94066.00
2023-02-08T18:22:44.182Z,94066.00
2023-02-08T18:23:44.206Z,94068.00
2023-02-08T18:24:44.230Z,94070.00
2023-02-08T18:25:44.652Z,94066.00
2023-02-08T18:26:44.308Z,94066.00
2023-02-08T18:27:44.396Z,94066.00
2023-02-08T18:29:44.409Z,94066.00
2023-02-08T18:31:44.662Z,94066.00
2023-02-08T18:32:44.509Z,94068.00
2023-02-08T18:37:45.692Z,94066.00
2023-02-08T18:51:45.167Z,94077.00
2023-02-08T18:52:45.192Z,94079.00
2023-02-08T18:53:45.217Z,94081.00
2023-02-08T18:54:45.250Z,94079.00
2023-02-08T18:55:45.499Z,94081.00
2023-02-08T18:56:45.311Z,94081.00
2023-02-08T18:57:45.350Z,94081.00
2023-02-08T18:58:45.375Z,94085.00
2023-02-08T18:59:45.463Z,94083.00
2023-02-08T19:00:45.512Z,94081.00
2023-02-08T19:01:45.533Z,94081.00
2023-02-08T19:02:45.494Z,94077.00
2023-02-08T19:03:45.535Z,94079.00
2023-02-08T19:04:45.560Z,94079.00
2023-02-08T19:05:47.105Z,94083.00
2023-02-08T19:06:45.646Z,94085.00
2023-02-08T19:07:46.194Z,94081.00
2023-02-08T19:08:45.722Z,94083.00
2023-02-08T19:09:45.746Z,94087.00
2023-02-08T19:10:45.797Z,94087.00
2023-02-08T19:11:45.830Z,94089.00
2023-02-08T19:12:45.850Z,94091.00
2023-02-08T19:13:45.894Z,94089.00
2023-02-08T19:14:45.918Z,94091.00
2023-02-08T19:15:46.098Z,94091.00
2023-02-08T19:16:45.994Z,94093.00
2023-02-08T19:17:46.083Z,94093.00
2023-02-08T19:18:46.068Z,94093.00
2023-02-08T19:19:46.113Z,94095.00
2023-02-08T19:20:46.145Z,94093.00
2023-02-08T19:21:47.702Z,94095.00
2023-02-08T19:22:46.236Z,94095.00
2023-02-08T19:23:46.285Z,94095.00
2023-02-08T19:24:46.288Z,94097.00
2023-02-08T19:25:46.302Z,94095.00
2023-02-08T19:26:46.349Z,94095.00
2023-02-08T19:27:46.373Z,94093.00
2023-02-08T19:28:46.407Z,94095.00
2023-02-08T19:29:46.439Z,94097.00
2023-02-08T19:30:46.508Z,94097.00
2023-02-08T19:31:47.359Z,94095.00
2023-02-08T19:32:46.535Z,94097.00
2023-02-08T19:33:46.569Z,94097.00
2023-02-08T19:34:46.601Z,94097.00
2023-02-08T19:35:46.878Z,94097.00
2023-02-08T19:36:46.722Z,94095.00
2023-02-08T19:37:48.789Z,94099.00
2023-02-08T19:38:46.693Z,94101.00
2023-02-08T19:39:46.618Z,94103.00
2023-02-08T19:40:46.597Z,94101.00
2023-02-08T19:41:46.621Z,94101.00
2023-02-08T19:42:46.550Z,94101.00
2023-02-08T19:43:46.525Z,94101.00
2023-02-08T19:44:46.491Z,94103.00
2023-02-08T19:45:46.933Z,94103.00
2023-02-08T19:46:46.436Z,94103.00
2023-02-08T19:47:51.438Z,94099.00
2023-02-08T19:48:47.378Z,94099.00
2023-02-08T19:49:46.348Z,94099.00
2023-02-08T19:50:46.333Z,94099.00
2023-02-08T19:51:46.302Z,94099.00
2023-02-08T19:52:46.276Z,94101.00
2023-02-08T19:53:46.237Z,94103.00
2023-02-08T19:54:46.202Z,94105.00
2023-02-08T19:55:46.171Z,94105.00
2023-02-08T19:56:46.219Z,94105.00
2023-02-08T19:57:46.268Z,94107.00
2023-02-08T19:58:46.292Z,94109.00
2023-02-08T19:59:46.320Z,94107.00
2023-02-08T20:00:46.363Z,94107.00
2023-02-08T20:01:46.434Z,94107.00
2023-02-08T20:02:46.462Z,94107.00
2023-02-08T20:03:46.472Z,94107.00
2023-02-08T20:04:46.522Z,94105.00
2023-02-08T20:05:46.555Z,94105.00
2023-02-08T20:06:46.590Z,94105.00
2023-02-08T20:07:46.640Z,94107.00
2023-02-08T20:08:46.667Z,94107.00
2023-02-08T20:09:46.757Z,94111.00
2023-02-08T20:10:46.737Z,94113.00
2023-02-08T20:11:58.484Z,94113.00
2023-02-08T20:12:47.749Z,94113.00
2023-02-08T20:13:46.729Z,94115.00
2023-02-08T20:14:46.793Z,94113.00
2023-02-08T20:15:46.656Z,94115.00
2023-02-08T20:16:46.660Z,94113.00
2023-02-08T20:17:46.593Z,94113.00
2023-02-08T20:18:46.578Z,94117.00
2023-02-08T20:19:46.534Z,94117.00
2023-02-08T20:20:46.489Z,94119.00
2023-02-08T20:21:46.511Z,94120.00
2023-02-08T20:22:46.729Z,94122.00
2023-02-08T20:23:46.557Z,94120.00
2023-02-08T20:24:46.597Z,94120.00
2023-02-08T20:25:46.623Z,94120.00
2023-02-08T20:26:46.644Z,94120.00
2023-02-08T20:27:46.678Z,94124.00
2023-02-08T20:28:46.696Z,94122.00
2023-02-08T20:29:46.703Z,94124.00
2023-02-08T20:30:46.744Z,94124.00
2023-02-08T20:31:46.872Z,94126.00
2023-02-08T20:32:46.798Z,94128.00
2023-02-08T20:33:46.812Z,94124.00
2023-02-08T20:34:58.489Z,94124.00
2023-02-08T20:35:47.783Z,94124.00
2023-02-08T20:37:00.810Z,94126.00
2023-02-08T20:37:47.726Z,94126.00
2023-02-08T20:38:46.691Z,94128.00
2023-02-08T20:39:46.663Z,94130.00
2023-02-08T20:40:47.220Z,94130.00
2023-02-08T20:41:46.597Z,94132.00
2023-02-08T20:42:46.563Z,94134.00
2023-02-08T20:43:46.561Z,94132.00
2023-02-08T20:44:46.516Z,94134.00
2023-02-08T20:45:47.123Z,94136.00
2023-02-08T20:46:46.699Z,94138.00
2023-02-08T20:47:46.938Z,94140.00
2023-02-08T20:48:46.638Z,94138.00
2023-02-08T20:49:46.688Z,94142.00
2023-02-08T20:50:46.692Z,94142.00
2023-02-08T20:51:46.727Z,94142.00
2023-02-08T20:52:46.808Z,94142.00
2023-02-08T20:53:47.240Z,94144.00
2023-02-08T20:54:46.840Z,94144.00
2023-02-08T20:55:46.958Z,94142.00
2023-02-08T20:56:46.872Z,94148.00
2023-02-08T20:57:46.971Z,94146.00
2023-02-08T20:58:46.927Z,94148.00
2023-02-08T20:59:46.962Z,94148.00
2023-02-08T21:00:47.018Z,94157.00
2023-02-08T21:01:47.069Z,94159.00